createdAt,value
2018-09-03T00:00:50.701Z,67.44
2018-09-03T00:01:50.648Z,67.63
2018-09-03T00:02:50.579Z,68.02
2018-09-03T00:03:50.508Z,67.63
2018-09-03T00:04:50.463Z,67.63
2018-09-03T00:05:50.411Z,67.72
2018-09-03T00:06:50.328Z,67.82
2018-09-03T00:07:50.275Z,67.72
2018-09-03T00:08:50.222Z,67.92
2018-09-03T00:09:50.142Z,67.92
2018-09-03T00:10:50.085Z,67.53
2018-09-03T00:11:50.012Z,68.02
2018-09-03T00:12:49.945Z,67.44
2018-09-03T00:13:49.890Z,67.72
2018-09-03T00:14:49.847Z,67.82
2018-09-03T00:15:49.771Z,68.02
2018-09-03T00:16:49.717Z,67.92
2018-09-03T00:17:49.634Z,68.02
2018-09-03T00:18:49.572Z,68.12
2018-09-03T00:19:49.523Z,67.82
2018-09-03T00:20:49.460Z,67.47
2018-09-03T00:21:49.400Z,67.27
2018-09-03T00:22:49.337Z,67.57
2018-09-03T00:23:49.264Z,67.47
2018-09-03T00:24:49.213Z,67.27
2018-09-03T00:25:49.145Z,67.27
2018-09-03T00:26:49.085Z,67.47
2018-09-03T00:27:49.016Z,67.18
2018-09-03T00:28:48.950Z,67.18
2018-09-03T00:29:48.898Z,67.18
2018-09-03T00:30:48.832Z,67.37
2018-09-03T00:31:48.776Z,67.57
2018-09-03T00:32:48.711Z,67.76
2018-09-03T00:33:48.637Z,67.72
2018-09-03T00:34:48.589Z,67.63
2018-09-03T00:35:48.520Z,67.05
2018-09-03T00:36:48.462Z,67.14
2018-09-03T00:37:48.392Z,66.85
2018-09-03T00:38:48.333Z,66.56
2018-09-03T00:39:48.267Z,67.05
2018-09-03T00:40:48.206Z,66.50
2018-09-03T00:41:48.161Z,66.47
2018-09-03T00:42:48.082Z,66.11
2018-09-03T00:43:48.021Z,66.02
2018-09-03T00:44:47.957Z,65.14
2018-09-03T00:45:47.941Z,65.53
2018-09-03T00:46:47.837Z,65.34
2018-09-03T00:47:47.770Z,65.43
2018-09-03T00:48:47.720Z,65.82
2018-09-03T00:49:47.651Z,65.24
2018-09-03T00:50:47.585Z,65.24
2018-09-03T00:51:47.530Z,65.14
2018-09-03T00:52:47.450Z,65.53
2018-09-03T00:53:47.394Z,65.72
2018-09-03T00:54:47.324Z,65.82
2018-09-03T00:55:47.273Z,65.14
2018-09-03T00:56:47.212Z,65.34
2018-09-03T00:57:47.147Z,65.20
2018-09-03T00:58:47.089Z,65.89
2018-09-03T00:59:47.010Z,65.79
2018-09-03T01:00:46.951Z,66.37
2018-09-03T01:01:46.888Z,66.27
2018-09-03T01:02:46.827Z,66.27
2018-09-03T01:03:46.775Z,66.08
2018-09-03T01:04:46.712Z,65.59
2018-09-03T01:05:46.662Z,65.98
2018-09-03T01:06:46.598Z,66.95
2018-09-03T01:07:46.521Z,66.95
2018-09-03T01:08:46.463Z,66.75
2018-09-03T01:09:46.402Z,66.85
2018-09-03T01:10:46.341Z,67.05
2018-09-03T01:11:46.268Z,66.75
2018-09-03T01:12:46.200Z,66.95
2018-09-03T01:13:46.143Z,66.66
2018-09-03T01:14:46.094Z,66.95
2018-09-03T01:15:46.022Z,66.85
2018-09-03T01:16:46.007Z,66.85
2018-09-03T01:17:45.894Z,66.85
2018-09-03T01:18:45.834Z,66.66
2018-09-03T01:19:45.761Z,67.53
2018-09-03T01:20:45.702Z,67.82
2018-09-03T01:21:45.648Z,68.27
2018-09-03T01:22:45.585Z,69.15
2018-09-03T01:23:45.512Z,69.53
2018-09-03T01:24:45.466Z,69.43
2018-09-03T01:25:45.391Z,69.50
2018-09-03T01:26:45.324Z,70.56
2018-09-03T01:27:45.268Z,70.95
2018-09-03T01:28:45.207Z,71.62
2018-09-03T01:29:45.259Z,71.44
2018-09-03T01:30:45.072Z,71.40
2018-09-03T01:31:45.017Z,71.44
2018-09-03T01:32:44.957Z,71.62
2018-09-03T01:33:44.893Z,71.53
2018-09-03T01:34:44.832Z,71.72
2018-09-03T01:35:44.774Z,71.44
2018-09-03T01:36:44.718Z,72.08
2018-09-03T01:37:44.637Z,72.85
2018-09-03T01:38:44.575Z,72.75
2018-09-03T01:39:44.514Z,72.66
2018-09-03T01:40:44.462Z,72.66
2018-09-03T01:41:44.374Z,72.75
2018-09-03T01:42:44.316Z,72.95
2018-09-03T01:43:44.261Z,72.08
2018-09-03T01:44:44.201Z,71.98
2018-09-03T01:45:44.138Z,72.75
2018-09-03T01:46:44.076Z,72.72
2018-09-03T01:47:43.998Z,72.95
2018-09-03T01:48:43.936Z,73.10
2018-09-03T01:49:43.870Z,73.10
2018-09-03T01:50:43.810Z,73.59
2018-09-03T01:51:43.760Z,73.68
2018-09-03T01:52:43.713Z,73.49
2018-09-03T01:53:43.637Z,73.59
2018-09-03T01:54:43.562Z,73.82
2018-09-03T01:55:43.504Z,73.04
2018-09-03T01:56:43.441Z,72.95
2018-09-03T01:57:43.377Z,72.91
2018-09-03T01:58:43.315Z,73.24
2018-09-03T01:59:43.236Z,73.04
2018-09-03T02:00:43.195Z,72.75
2018-09-03T02:01:43.112Z,72.75
2018-09-03T02:02:43.049Z,73.04
2018-09-03T02:03:42.998Z,72.85
2018-09-03T02:04:42.939Z,72.27
2018-09-03T02:05:42.880Z,73.04
2018-09-03T02:06:42.805Z,72.56
2018-09-03T02:07:42.736Z,72.56
2018-09-03T02:08:42.672Z,72.36
2018-09-03T02:09:42.616Z,72.36
2018-09-03T02:10:42.548Z,72.21
2018-09-03T02:11:42.496Z,71.44
2018-09-03T02:12:42.414Z,72.21
2018-09-03T02:13:42.366Z,72.30
2018-09-03T02:14:42.286Z,72.46
2018-09-03T02:15:42.228Z,73.33
2018-09-03T02:16:42.168Z,73.59
2018-09-03T02:17:42.106Z,74.75
2018-09-03T02:18:42.041Z,74.94
2018-09-03T02:19:41.970Z,75.52
2018-09-03T02:20:41.914Z,75.91
2018-09-03T02:21:41.848Z,76.39
2018-09-03T02:22:41.795Z,76.49
2018-09-03T02:23:41.750Z,76.39
2018-09-03T02:24:41.663Z,75.91
2018-09-03T02:25:41.608Z,76.39
2018-09-03T02:26:41.527Z,76.68
2018-09-03T02:27:41.491Z,77.51
2018-09-03T02:28:41.411Z,79.25
2018-09-03T02:29:41.345Z,79.60
2018-09-03T02:30:41.284Z,81.05
2018-09-03T02:31:41.204Z,81.05
2018-09-03T02:32:41.146Z,81.44
2018-09-03T02:33:41.093Z,82.02
2018-09-03T02:34:41.025Z,81.82
2018-09-03T02:35:40.952Z,81.82
2018-09-03T02:36:40.908Z,82.21
2018-09-03T02:37:40.832Z,82.31
2018-09-03T02:38:40.762Z,82.21
2018-09-03T02:39:40.712Z,81.92
2018-09-03T02:40:40.646Z,82.21
2018-09-03T02:41:40.568Z,82.21
2018-09-03T02:42:40.506Z,81.82
2018-09-03T02:43:40.455Z,81.29
2018-09-03T02:44:40.389Z,81.48
2018-09-03T02:45:40.326Z,80.61
2018-09-03T02:46:40.267Z,80.12
2018-09-03T02:47:40.189Z,80.16
2018-09-03T02:48:40.127Z,80.07
2018-09-03T02:49:40.058Z,80.80
2018-09-03T02:50:39.994Z,82.02
2018-09-03T02:51:39.944Z,82.11
2018-09-03T02:52:39.876Z,82.60
2018-09-03T02:53:39.816Z,82.02
2018-09-03T02:54:39.747Z,81.92
2018-09-03T02:55:39.683Z,81.63
2018-09-03T02:56:39.616Z,81.87
2018-09-03T02:57:39.573Z,81.29
2018-09-03T02:58:39.531Z,81.09
2018-09-03T02:59:39.444Z,80.61
2018-09-03T03:00:39.357Z,80.84
2018-09-03T03:01:39.311Z,80.46
2018-09-03T03:02:39.241Z,80.16
2018-09-03T03:03:39.175Z,80.07
2018-09-03T03:04:39.109Z,80.16
2018-09-03T03:05:39.067Z,80.07
2018-09-03T03:06:38.985Z,79.78
2018-09-03T03:07:38.937Z,80.07
2018-09-03T03:08:38.844Z,79.72
2018-09-03T03:09:38.782Z,80.07
2018-09-03T03:10:38.720Z,79.97
2018-09-03T03:11:38.714Z,80.07
2018-09-03T03:12:38.600Z,80.07
2018-09-03T03:13:38.546Z,80.46
2018-09-03T03:14:38.483Z,80.55
2018-09-03T03:15:38.408Z,80.84
2018-09-03T03:16:38.343Z,80.84
2018-09-03T03:17:38.283Z,81.04
2018-09-03T03:18:38.217Z,81.57
2018-09-03T03:19:38.146Z,81.67
2018-09-03T03:20:38.080Z,82.15
2018-09-03T03:21:38.021Z,82.73
2018-09-03T03:22:37.955Z,83.37
2018-09-03T03:23:37.902Z,83.80
2018-09-03T03:24:37.836Z,83.80
2018-09-03T03:25:37.768Z,83.99
2018-09-03T03:26:37.705Z,83.80
2018-09-03T03:27:37.637Z,84.28
2018-09-03T03:28:37.568Z,84.38
2018-09-03T03:29:37.516Z,84.77
2018-09-03T03:30:37.454Z,84.32
2018-09-03T03:31:37.384Z,84.13
2018-09-03T03:32:37.337Z,84.32
2018-09-03T03:33:37.269Z,84.03
2018-09-03T03:34:37.188Z,83.74
2018-09-03T03:35:37.134Z,84.13
2018-09-03T03:36:37.075Z,83.84
2018-09-03T03:37:36.996Z,83.74
2018-09-03T03:38:36.959Z,84.13
2018-09-03T03:39:36.877Z,83.74
2018-09-03T03:40:36.816Z,84.13
2018-09-03T03:41:36.749Z,83.94
2018-09-03T03:42:36.706Z,82.87
2018-09-03T03:43:36.630Z,82.68
2018-09-03T03:44:36.548Z,81.90
2018-09-03T03:45:36.501Z,81.52
2018-09-03T03:46:36.432Z,81.81
2018-09-03T03:47:36.407Z,80.65
2018-09-03T03:48:36.370Z,80.16
2018-09-03T03:49:36.252Z,80.46
2018-09-03T03:50:36.167Z,79.87
2018-09-03T03:51:36.114Z,79.49
2018-09-03T03:52:36.045Z,79.58
2018-09-03T03:53:35.984Z,79.39
2018-09-03T03:54:35.922Z,80.36
2018-09-03T03:55:35.855Z,79.97
2018-09-03T03:56:35.783Z,79.49
2018-09-03T03:57:35.737Z,79.49
2018-09-03T03:58:35.678Z,80.22
2018-09-03T03:59:35.628Z,80.36
2018-09-03T04:00:35.550Z,80.07
2018-09-03T04:01:35.466Z,79.54
2018-09-03T04:02:35.411Z,79.87
2018-09-03T04:03:35.352Z,79.00
2018-09-03T04:04:35.288Z,78.91
2018-09-03T04:05:35.223Z,79.20
2018-09-03T04:06:35.155Z,79.10
2018-09-03T04:07:35.084Z,79.20
2018-09-03T04:08:35.022Z,79.29
2018-09-03T04:09:34.963Z,78.91
2018-09-03T04:10:34.905Z,79.10
2018-09-03T04:11:34.858Z,78.81
2018-09-03T04:12:34.766Z,78.52
2018-09-03T04:13:34.704Z,78.58
2018-09-03T04:14:34.644Z,78.91
2018-09-03T04:15:34.581Z,78.96
2018-09-03T04:16:34.579Z,78.67
2018-09-03T04:17:34.461Z,78.48
2018-09-03T04:18:34.378Z,78.48
2018-09-03T04:19:34.334Z,78.67
2018-09-03T04:20:34.267Z,78.77
2018-09-03T04:21:34.206Z,78.67
2018-09-03T04:22:34.133Z,78.77
2018-09-03T04:23:34.066Z,78.38
2018-09-03T04:24:34.002Z,78.67
2018-09-03T04:25:33.954Z,78.38
2018-09-03T04:26:33.896Z,78.77
2018-09-03T04:27:33.832Z,78.77
2018-09-03T04:28:33.755Z,78.58
2018-09-03T04:29:33.697Z,78.48
2018-09-03T04:30:33.630Z,78.96
2018-09-03T04:31:33.572Z,79.06
2018-09-03T04:32:33.493Z,78.96
2018-09-03T04:33:33.437Z,78.87
2018-09-03T04:34:33.390Z,78.77
2018-09-03T04:35:33.300Z,78.29
2018-09-03T04:36:33.239Z,78.58
2018-09-03T04:37:33.171Z,78.77
2018-09-03T04:38:33.160Z,79.35
2018-09-03T04:39:33.054Z,79.16
2018-09-03T04:40:32.992Z,79.06
2018-09-03T04:41:32.916Z,79.10
2018-09-03T04:42:32.859Z,79.20
2018-09-03T04:43:32.802Z,79.49
2018-09-03T04:44:32.734Z,79.20
2018-09-03T04:45:32.678Z,79.29
2018-09-03T04:46:32.612Z,78.91
2018-09-03T04:47:32.544Z,78.81
2018-09-03T04:48:32.471Z,79.20
2018-09-03T04:49:32.418Z,79.10
2018-09-03T04:50:32.357Z,79.20
2018-09-03T04:51:32.286Z,79.68
2018-09-03T04:52:32.215Z,80.16
2018-09-03T04:53:32.158Z,80.26
2018-09-03T04:54:32.131Z,80.16
2018-09-03T04:55:32.040Z,79.68
2018-09-03T04:56:31.968Z,79.58
2018-09-03T04:57:31.937Z,80.51
2018-09-03T04:58:31.844Z,80.32
2018-09-03T04:59:31.769Z,79.93
2018-09-03T05:00:31.716Z,81.09
2018-09-03T05:01:31.651Z,80.71
2018-09-03T05:02:31.621Z,80.71
2018-09-03T05:03:31.520Z,80.71
2018-09-03T05:04:31.470Z,80.71
2018-09-03T05:05:31.418Z,80.80
2018-09-03T05:06:31.327Z,80.61
2018-09-03T05:07:31.270Z,80.90
2018-09-03T05:08:31.202Z,81.48
2018-09-03T05:09:31.138Z,81.48
2018-09-03T05:10:31.076Z,81.38
2018-09-03T05:11:31.021Z,81.19
2018-09-03T05:12:30.940Z,81.57
2018-09-03T05:13:30.881Z,80.90
2018-09-03T05:14:30.811Z,81.48
2018-09-03T05:15:30.769Z,81.38
2018-09-03T05:16:30.690Z,81.77
2018-09-03T05:17:30.654Z,81.77
2018-09-03T05:18:30.572Z,81.77
2018-09-03T05:19:30.495Z,81.48
2018-09-03T05:20:30.431Z,82.06
2018-09-03T05:21:30.377Z,81.87
2018-09-03T05:22:30.312Z,82.06
2018-09-03T05:23:30.239Z,81.87
2018-09-03T05:24:30.176Z,81.87
2018-09-03T05:25:30.110Z,81.87
2018-09-03T05:26:30.046Z,82.15
2018-09-03T05:27:29.992Z,82.06
2018-09-03T05:28:29.925Z,82.60
2018-09-03T05:29:29.865Z,82.45
2018-09-03T05:30:29.798Z,82.45
2018-09-03T05:31:29.753Z,82.64
2018-09-03T05:32:29.686Z,82.45
2018-09-03T05:33:29.599Z,81.67
2018-09-03T05:34:29.535Z,82.15
2018-09-03T05:35:29.486Z,82.54
2018-09-03T05:36:29.423Z,82.15
2018-09-03T05:37:29.349Z,82.06
2018-09-03T05:38:29.284Z,81.38
2018-09-03T05:39:29.235Z,81.57
2018-09-03T05:40:29.160Z,81.19
2018-09-03T05:41:29.119Z,80.90
2018-09-03T05:42:29.065Z,80.61
2018-09-03T05:43:29.229Z,80.22
2018-09-03T05:44:28.895Z,80.22
2018-09-03T05:45:28.842Z,80.03
2018-09-03T05:46:28.783Z,80.12
2018-09-03T05:47:28.705Z,80.07
2018-09-03T05:48:28.669Z,80.07
2018-09-03T05:49:28.581Z,79.54
2018-09-03T05:50:28.539Z,79.58
2018-09-03T05:51:28.459Z,79.68
2018-09-03T05:52:28.403Z,80.36
2018-09-03T05:53:28.327Z,80.07
2018-09-03T05:54:28.273Z,80.41
2018-09-03T05:55:28.206Z,80.07
2018-09-03T05:56:28.131Z,80.46
2018-09-03T05:57:28.087Z,80.22
2018-09-03T05:58:28.026Z,80.99
2018-09-03T05:59:28.002Z,80.76
2018-09-03T06:00:27.886Z,80.66
2018-09-03T06:01:27.825Z,80.86
2018-09-03T06:02:27.767Z,81.24
2018-09-03T06:03:27.681Z,80.66
2018-09-03T06:04:27.631Z,80.32
2018-09-03T06:05:27.561Z,79.54
2018-09-03T06:06:27.507Z,79.45
2018-09-03T06:07:27.440Z,79.54
2018-09-03T06:08:27.356Z,79.64
2018-09-03T06:09:27.303Z,79.74
2018-09-03T06:10:27.279Z,79.16
2018-09-03T06:11:27.183Z,79.64
2018-09-03T06:12:27.111Z,79.00
2018-09-03T06:13:27.038Z,78.61
2018-09-03T06:14:26.980Z,78.52
2018-09-03T06:15:26.918Z,78.23
2018-09-03T06:16:26.859Z,77.84
2018-09-03T06:17:26.802Z,77.84
2018-09-03T06:18:26.746Z,79.10
2018-09-03T06:19:26.669Z,79.49
2018-09-03T06:20:26.608Z,80.55
2018-09-03T06:21:26.545Z,79.87
2018-09-03T06:22:26.481Z,80.07
2018-09-03T06:23:26.420Z,80.07
2018-09-03T06:24:26.342Z,80.07
2018-09-03T06:25:26.283Z,79.58
2018-09-03T06:26:26.237Z,79.87
2018-09-03T06:27:26.159Z,79.20
2018-09-03T06:28:26.094Z,78.56
2018-09-03T06:29:26.034Z,78.71
2018-09-03T06:30:25.980Z,78.42
2018-09-03T06:31:25.907Z,77.88
2018-09-03T06:32:25.838Z,77.84
2018-09-03T06:33:25.771Z,78.71
2018-09-03T06:34:25.749Z,79.49
2018-09-03T06:35:25.651Z,79.00
2018-09-03T06:36:25.580Z,79.49
2018-09-03T06:37:25.517Z,79.93
2018-09-03T06:38:25.452Z,80.26
2018-09-03T06:39:25.392Z,80.36
2018-09-03T06:40:25.336Z,80.51
2018-09-03T06:41:25.269Z,80.26
2018-09-03T06:42:25.224Z,79.97
2018-09-03T06:43:25.134Z,80.61
2018-09-03T06:44:25.085Z,80.71
2018-09-03T06:45:25.018Z,80.74
2018-09-03T06:46:24.962Z,80.41
2018-09-03T06:47:24.891Z,80.07
2018-09-03T06:48:24.817Z,80.07
2018-09-03T06:49:24.769Z,79.87
2018-09-03T06:50:24.700Z,79.87
2018-09-03T06:51:24.638Z,80.26
2018-09-03T06:52:24.580Z,80.07
2018-09-03T06:53:24.553Z,79.87
2018-09-03T06:54:24.454Z,79.45
2018-09-03T06:55:24.364Z,80.32
2018-09-03T06:56:24.323Z,80.38
2018-09-03T06:57:24.249Z,80.22
2018-09-03T06:58:24.191Z,80.03
2018-09-03T06:59:24.123Z,80.03
2018-09-03T07:00:24.049Z,80.22
2018-09-03T07:01:23.991Z,80.12
2018-09-03T07:02:23.926Z,79.93
2018-09-03T07:03:23.879Z,79.83
2018-09-03T07:04:23.806Z,80.61
2018-09-03T07:05:23.745Z,80.51
2018-09-03T07:06:23.692Z,81.19
2018-09-03T07:07:23.627Z,80.61
2018-09-03T07:08:23.551Z,80.32
2018-09-03T07:09:23.493Z,80.41
2018-09-03T07:10:23.421Z,80.03
2018-09-03T07:11:23.361Z,79.83
2018-09-03T07:12:23.287Z,80.03
2018-09-03T07:13:23.226Z,80.22
2018-09-03T07:14:23.169Z,80.51
2018-09-03T07:15:23.140Z,80.12
2018-09-03T07:16:23.045Z,80.03
2018-09-03T07:17:22.970Z,79.25
2018-09-03T07:18:22.902Z,79.45
2018-09-03T07:19:22.848Z,79.83
2018-09-03T07:20:22.805Z,80.12
2018-09-03T07:21:22.730Z,79.64
2018-09-03T07:22:22.654Z,79.54
2018-09-03T07:23:22.609Z,79.45
2018-09-03T07:24:22.536Z,79.54
2018-09-03T07:25:22.480Z,78.91
2018-09-03T07:26:22.405Z,79.20
2018-09-03T07:27:22.344Z,79.29
2018-09-03T07:28:22.287Z,78.52
2018-09-03T07:29:22.224Z,78.91
2018-09-03T07:30:22.163Z,78.81
2018-09-03T07:31:22.078Z,78.66
2018-09-03T07:32:22.073Z,78.75
2018-09-03T07:33:21.969Z,78.66
2018-09-03T07:34:21.894Z,78.66
2018-09-03T07:35:21.837Z,77.59
2018-09-03T07:36:21.762Z,77.53
2018-09-03T07:37:21.714Z,76.66
2018-09-03T07:38:21.651Z,76.95
2018-09-03T07:39:21.590Z,76.66
2018-09-03T07:40:21.504Z,76.60
2018-09-03T07:41:21.451Z,76.12
2018-09-03T07:42:21.398Z,76.31
2018-09-03T07:43:21.340Z,76.60
2018-09-03T07:44:21.276Z,76.46
2018-09-03T07:45:21.205Z,76.37
2018-09-03T07:46:21.141Z,76.56
2018-09-03T07:47:21.079Z,77.05
2018-09-03T07:48:21.019Z,76.72
2018-09-03T07:49:20.962Z,77.40
2018-09-03T07:50:20.901Z,77.20
2018-09-03T07:51:20.815Z,77.20
2018-09-03T07:52:20.759Z,77.78
2018-09-03T07:53:20.701Z,77.20
2018-09-03T07:54:20.623Z,76.76
2018-09-03T07:55:20.558Z,76.66
2018-09-03T07:56:20.533Z,76.82
2018-09-03T07:57:20.448Z,76.66
2018-09-03T07:58:20.387Z,76.56
2018-09-03T07:59:20.325Z,77.34
2018-09-03T08:00:20.250Z,77.05
2018-09-03T08:01:20.239Z,76.66
2018-09-03T08:02:20.126Z,76.56
2018-09-03T08:03:20.055Z,76.95
2018-09-03T08:04:20.003Z,76.56
2018-09-03T08:05:19.942Z,76.51
2018-09-03T08:06:19.879Z,76.60
2018-09-03T08:07:19.831Z,76.41
2018-09-03T08:08:19.743Z,75.92
2018-09-03T08:09:19.674Z,76.02
2018-09-03T08:10:19.631Z,76.41
2018-09-03T08:11:19.561Z,76.60
2018-09-03T08:12:19.492Z,76.60
2018-09-03T08:13:19.433Z,76.70
2018-09-03T08:14:19.391Z,77.57
2018-09-03T08:15:19.326Z,76.99
2018-09-03T08:16:19.251Z,77.19
2018-09-03T08:17:19.195Z,77.09
2018-09-03T08:18:19.130Z,76.70
2018-09-03T08:19:19.061Z,76.79
2018-09-03T08:20:19.004Z,76.70
2018-09-03T08:21:18.936Z,76.60
2018-09-03T08:22:18.874Z,76.89
2018-09-03T08:23:18.826Z,77.37
2018-09-03T08:24:18.743Z,77.19
2018-09-03T08:25:18.683Z,77.37
2018-09-03T08:26:18.626Z,77.37
2018-09-03T08:27:18.566Z,77.86
2018-09-03T08:28:18.490Z,78.44
2018-09-03T08:29:18.449Z,78.25
2018-09-03T08:30:18.439Z,78.92
2018-09-03T08:31:18.305Z,78.74
2018-09-03T08:32:18.256Z,79.22
2018-09-03T08:33:18.219Z,80.28
2018-09-03T08:34:18.127Z,79.80
2018-09-03T08:35:18.064Z,80.47
2018-09-03T08:36:18.008Z,80.67
2018-09-03T08:37:17.977Z,80.57
2018-09-03T08:38:17.869Z,81.15
2018-09-03T08:39:17.824Z,80.80
2018-09-03T08:40:17.750Z,80.77
2018-09-03T08:41:17.701Z,80.80
2018-09-03T08:42:17.619Z,80.80
2018-09-03T08:43:17.560Z,80.13
2018-09-03T08:44:17.499Z,80.32
2018-09-03T08:45:17.439Z,80.22
2018-09-03T08:46:17.381Z,80.22
2018-09-03T08:47:17.322Z,80.90
2018-09-03T08:48:17.247Z,80.71
2018-09-03T08:49:17.189Z,80.32
2018-09-03T08:50:17.156Z,81.00
2018-09-03T08:51:17.057Z,80.90
2018-09-03T08:52:17.006Z,81.29
2018-09-03T08:53:16.942Z,81.29
2018-09-03T08:54:16.878Z,80.90
2018-09-03T08:55:16.818Z,80.80
2018-09-03T08:56:16.761Z,80.71
2018-09-03T08:57:16.685Z,80.52
2018-09-03T08:58:16.638Z,80.26
2018-09-03T08:59:16.570Z,80.65
2018-09-03T09:00:16.499Z,80.17
2018-09-03T09:01:16.457Z,80.55
2018-09-03T09:02:16.385Z,80.17
2018-09-03T09:03:16.329Z,80.46
2018-09-03T09:04:16.258Z,80.36
2018-09-03T09:05:16.203Z,80.36
2018-09-03T09:06:16.137Z,80.40
2018-09-03T09:07:16.073Z,80.36
2018-09-03T09:08:16.008Z,80.01
2018-09-03T09:09:15.939Z,80.46
2018-09-03T09:10:15.918Z,80.26
2018-09-03T09:11:15.819Z,80.75
2018-09-03T09:12:15.765Z,80.75
2018-09-03T09:13:15.706Z,80.07
2018-09-03T09:14:15.635Z,80.46
2018-09-03T09:15:15.569Z,80.85
2018-09-03T09:16:15.522Z,80.65
2018-09-03T09:17:15.457Z,81.23
2018-09-03T09:18:15.398Z,80.85
2018-09-03T09:19:15.334Z,81.13
2018-09-03T09:20:15.283Z,80.85
2018-09-03T09:21:15.199Z,80.94
2018-09-03T09:22:15.149Z,80.94
2018-09-03T09:23:15.098Z,81.52
2018-09-03T09:24:15.014Z,81.13
2018-09-03T09:25:14.947Z,80.75
2018-09-03T09:26:14.891Z,81.23
2018-09-03T09:27:14.861Z,81.23
2018-09-03T09:28:14.781Z,81.04
2018-09-03T09:29:14.759Z,81.18
2018-09-03T09:30:14.659Z,81.04
2018-09-03T09:31:14.617Z,80.79
2018-09-03T09:32:14.532Z,81.18
2018-09-03T09:33:14.468Z,81.08
2018-09-03T09:34:14.407Z,81.43
2018-09-03T09:35:14.347Z,81.04
2018-09-03T09:36:14.273Z,82.10
2018-09-03T09:37:14.218Z,81.72
2018-09-03T09:38:14.152Z,81.72
2018-09-03T09:39:14.104Z,82.10
2018-09-03T09:40:14.038Z,80.75
2018-09-03T09:41:13.972Z,81.08
2018-09-03T09:42:13.920Z,80.88
2018-09-03T09:43:13.903Z,80.40
2018-09-03T09:44:13.822Z,80.40
2018-09-03T09:45:13.719Z,80.34
2018-09-03T09:46:13.670Z,80.44
2018-09-03T09:47:13.612Z,79.66
2018-09-03T09:48:13.552Z,79.57
2018-09-03T09:49:13.506Z,79.47
2018-09-03T09:50:13.415Z,79.08
2018-09-03T09:51:13.372Z,79.18
2018-09-03T09:52:13.302Z,79.47
2018-09-03T09:53:13.243Z,79.71
2018-09-03T09:54:13.189Z,78.73
2018-09-03T09:55:13.114Z,78.73
2018-09-03T09:56:13.050Z,79.41
2018-09-03T09:57:12.987Z,78.34
2018-09-03T09:58:12.928Z,78.73
2018-09-03T09:59:12.884Z,78.54
2018-09-03T10:00:12.815Z,78.73
2018-09-03T10:01:12.744Z,79.02
2018-09-03T10:02:12.710Z,78.73
2018-09-03T10:03:12.639Z,78.83
2018-09-03T10:04:12.622Z,79.22
2018-09-03T10:05:12.518Z,78.38
2018-09-03T10:06:12.449Z,78.28
2018-09-03T10:07:12.385Z,78.67
2018-09-03T10:08:12.317Z,77.70
2018-09-03T10:09:12.261Z,77.31
2018-09-03T10:10:12.205Z,77.41
2018-09-03T10:11:12.154Z,77.61
2018-09-03T10:12:12.090Z,77.51
2018-09-03T10:13:12.029Z,77.51
2018-09-03T10:14:11.968Z,76.92
2018-09-03T10:15:11.901Z,76.64
2018-09-03T10:16:11.857Z,76.77
2018-09-03T10:17:11.787Z,76.44
2018-09-03T10:18:11.735Z,77.61
2018-09-03T10:19:11.679Z,77.35
2018-09-03T10:20:11.595Z,77.35
2018-09-03T10:21:11.541Z,77.45
2018-09-03T10:22:11.480Z,77.45
2018-09-03T10:23:11.436Z,77.55
2018-09-03T10:24:11.388Z,77.64
2018-09-03T10:25:11.307Z,77.94
2018-09-03T10:26:11.301Z,78.23
2018-09-03T10:27:11.192Z,78.71
2018-09-03T10:28:11.129Z,78.42
2018-09-03T10:29:11.075Z,78.42
2018-09-03T10:30:11.010Z,79.59
2018-09-03T10:31:10.942Z,79.00
2018-09-03T10:32:10.896Z,79.30
2018-09-03T10:33:10.824Z,79.59
2018-09-03T10:34:10.764Z,80.07
2018-09-03T10:35:10.689Z,79.97
2018-09-03T10:36:10.647Z,80.07
2018-09-03T10:37:10.591Z,80.46
2018-09-03T10:38:10.552Z,80.32
2018-09-03T10:39:10.460Z,80.71
2018-09-03T10:40:10.402Z,80.23
2018-09-03T10:41:10.337Z,80.52
2018-09-03T10:42:10.277Z,80.29
2018-09-03T10:43:10.209Z,80.09
2018-09-03T10:44:10.153Z,80.32
2018-09-03T10:45:10.096Z,80.42
2018-09-03T10:46:10.027Z,80.04
2018-09-03T10:47:10.091Z,79.35
2018-09-03T10:48:09.912Z,79.64
2018-09-03T10:49:09.837Z,78.77
2018-09-03T10:50:09.775Z,79.00
2018-09-03T10:51:09.727Z,79.00
2018-09-03T10:52:09.668Z,78.42
2018-09-03T10:53:09.603Z,78.23
2018-09-03T10:54:09.540Z,78.33
2018-09-03T10:55:09.465Z,78.42
2018-09-03T10:56:09.420Z,78.33
2018-09-03T10:57:09.362Z,78.42
2018-09-03T10:58:09.300Z,78.61
2018-09-03T10:59:09.232Z,78.23
2018-09-03T11:00:09.183Z,78.07
2018-09-03T11:01:09.119Z,78.07
2018-09-03T11:02:09.039Z,77.97
2018-09-03T11:03:08.992Z,77.87
2018-09-03T11:04:08.934Z,78.07
2018-09-03T11:05:08.928Z,77.48
2018-09-03T11:06:08.802Z,77.82
2018-09-03T11:07:08.753Z,77.58
2018-09-03T11:08:08.693Z,78.01
2018-09-03T11:09:08.620Z,78.07
2018-09-03T11:10:08.563Z,78.17
2018-09-03T11:11:08.499Z,78.17
2018-09-03T11:12:08.432Z,77.87
2018-09-03T11:13:08.424Z,77.97
2018-09-03T11:14:08.364Z,78.07
2018-09-03T11:15:08.264Z,78.07
2018-09-03T11:16:08.199Z,78.27
2018-09-03T11:17:08.142Z,78.46
2018-09-03T11:18:08.073Z,78.36
2018-09-03T11:19:08.020Z,78.36
2018-09-03T11:20:08.004Z,78.61
2018-09-03T11:21:07.954Z,78.33
2018-09-03T11:22:07.835Z,78.03
2018-09-03T11:23:07.780Z,77.45
2018-09-03T11:24:07.699Z,77.94
2018-09-03T11:25:07.658Z,77.25
2018-09-03T11:26:07.592Z,76.97
2018-09-03T11:27:07.526Z,76.48
2018-09-03T11:28:07.464Z,76.57
2018-09-03T11:29:07.395Z,75.99
2018-09-03T11:30:07.348Z,75.51
2018-09-03T11:31:07.283Z,75.89
2018-09-03T11:32:07.226Z,75.12
2018-09-03T11:33:07.163Z,74.92
2018-09-03T11:34:07.159Z,74.82
2018-09-03T11:35:07.084Z,74.92
2018-09-03T11:36:06.968Z,74.63
2018-09-03T11:37:06.918Z,73.66
2018-09-03T11:38:06.854Z,74.15
2018-09-03T11:39:06.799Z,73.95
2018-09-03T11:40:06.742Z,73.89
2018-09-03T11:41:06.677Z,73.79
2018-09-03T11:42:06.595Z,73.21
2018-09-03T11:43:06.549Z,72.92
2018-09-03T11:44:06.520Z,73.30
2018-09-03T11:45:06.425Z,73.21
2018-09-03T11:46:06.359Z,73.21
2018-09-03T11:47:06.318Z,73.21
2018-09-03T11:48:06.255Z,72.33
2018-09-03T11:49:06.217Z,73.21
2018-09-03T11:50:06.109Z,72.92
2018-09-03T11:51:06.058Z,73.21
2018-09-03T11:52:05.998Z,73.30
2018-09-03T11:53:05.927Z,73.11
2018-09-03T11:54:05.883Z,73.11
2018-09-03T11:55:05.810Z,73.21
2018-09-03T11:56:05.754Z,73.30
2018-09-03T11:57:05.687Z,73.40
2018-09-03T11:58:05.635Z,73.11
2018-09-03T11:59:05.560Z,73.40
2018-09-03T12:00:05.501Z,73.40
2018-09-03T12:01:05.435Z,73.40
2018-09-03T12:02:05.424Z,74.38
2018-09-03T12:03:05.320Z,73.99
2018-09-03T12:04:05.257Z,73.89
2018-09-03T12:05:05.207Z,73.79
2018-09-03T12:06:05.141Z,74.08
2018-09-03T12:07:05.066Z,73.60
2018-09-03T12:08:05.018Z,73.99
2018-09-03T12:09:04.985Z,74.38
2018-09-03T12:10:04.890Z,73.69
2018-09-03T12:11:04.839Z,73.02
2018-09-03T12:12:04.771Z,73.15
2018-09-03T12:13:04.698Z,73.15
2018-09-03T12:14:04.661Z,73.24
2018-09-03T12:15:04.588Z,73.24
2018-09-03T12:16:04.529Z,73.24
2018-09-03T12:17:04.480Z,73.63
2018-09-03T12:18:04.419Z,73.93
2018-09-03T12:19:04.337Z,72.86
2018-09-03T12:20:04.273Z,73.34
2018-09-03T12:21:04.271Z,73.54
2018-09-03T12:22:04.152Z,73.44
2018-09-03T12:23:04.105Z,73.44
2018-09-03T12:24:04.040Z,72.96
2018-09-03T12:25:03.970Z,72.96
2018-09-03T12:26:03.939Z,72.56
2018-09-03T12:27:03.860Z,72.96
2018-09-03T12:28:03.795Z,72.96
2018-09-03T12:29:03.744Z,72.50
2018-09-03T12:30:03.677Z,72.96
2018-09-03T12:31:03.610Z,72.56
2018-09-03T12:32:03.548Z,72.99
2018-09-03T12:33:03.506Z,73.18
2018-09-03T12:34:03.434Z,72.11
2018-09-03T12:35:03.367Z,72.50
2018-09-03T12:36:03.300Z,72.50
2018-09-03T12:37:03.289Z,73.05
2018-09-03T12:38:03.186Z,72.86
2018-09-03T12:39:03.136Z,73.28
2018-09-03T12:40:03.076Z,72.11
2018-09-03T12:41:03.004Z,72.11
2018-09-03T12:42:02.948Z,72.41
2018-09-03T12:43:02.958Z,72.21
2018-09-03T12:44:02.852Z,72.60
2018-09-03T12:45:02.777Z,72.25
2018-09-03T12:46:02.758Z,72.05
2018-09-03T12:47:02.645Z,71.95
2018-09-03T12:48:02.607Z,71.76
2018-09-03T12:49:02.525Z,71.56
2018-09-03T12:50:02.516Z,71.47
2018-09-03T12:51:02.451Z,71.17
2018-09-03T12:52:02.354Z,71.17